Time;durP1;ratioP1;P1;durP2;ratioP2;P2;SDS_P1;SDS_P2;PMS_P1;PMS_P2;Temp;Humidity;BMP_temperature;BMP_pressure;BME280_temperature;BME280_humidity;BME280_pressure;Samples;Min_cycle;Max_cycle;Signal;HPM_P1;HPM_P2
2023/10/16 00:01:28;;;;;;;10.32;3.75;;;4.40;99.90;;;;;;5010683;28;20551;-64
2023/10/16 00:03:56;;;;;;;5.30;2.90;;;4.40;99.90;;;;;;5008638;28;20053;-62
2023/10/16 00:06:23;;;;;;;10.00;3.35;;;4.40;99.90;;;;;;5008130;28;20508;-62
2023/10/16 00:09:14;;;;;;;8.10;3.20;;;4.40;99.90;;;;;;5010277;28;20061;-62
2023/10/16 00:11:41;;;;;;;8.50;3.58;;;4.30;99.90;;;;;;5007292;28;20136;-63
2023/10/16 00:14:23;;;;;;;7.22;3.70;;;4.40;99.90;;;;;;5008942;28;20133;-63
2023/10/16 00:16:51;;;;;;;7.95;3.20;;;4.40;99.90;;;;;;5008062;28;20049;-62
2023/10/16 00:19:18;;;;;;;5.95;3.78;;;4.30;99.90;;;;;;4993268;28;20042;-63
2023/10/16 00:21:46;;;;;;;8.93;3.22;;;4.20;99.90;;;;;;5010682;28;20042;-63
2023/10/16 00:24:13;;;;;;;10.45;3.85;;;4.10;99.90;;;;;;5010604;28;20054;-63
2023/10/16 00:26:45;;;;;;;5.78;3.10;;;4.10;99.90;;;;;;5010620;28;20049;-61
2023/10/16 00:29:24;;;;;;;7.38;2.80;;;4.10;99.90;;;;;;5010654;28;20124;-62
2023/10/16 00:31:52;;;;;;;6.82;2.90;;;4.00;99.90;;;;;;5010594;28;20128;-63
2023/10/16 00:34:19;;;;;;;10.35;4.47;;;3.80;99.90;;;;;;5010037;28;20050;-65
2023/10/16 00:36:50;;;;;;;6.50;3.50;;;3.80;99.90;;;;;;5009270;28;20049;-62
2023/10/16 00:39:19;;;;;;;9.32;3.42;;;3.80;99.90;;;;;;4992239;28;20050;-62
2023/10/16 00:41:46;;;;;;;7.75;3.42;;;3.90;99.90;;;;;;5009580;28;20076;-61
2023/10/16 00:44:17;;;;;;;7.65;4.72;;;3.90;99.90;;;;;;5009834;28;20192;-62
2023/10/16 00:46:53;;;;;;;7.95;3.10;;;3.90;99.90;;;;;;5009321;28;20115;-63
2023/10/16 00:49:19;;;;;;;5.70;2.88;;;3.90;99.90;;;;;;5009381;28;20050;-62
2023/10/16 00:51:46;;;;;;;11.23;3.20;;;3.80;99.90;;;;;;5009535;28;20393;-62
2023/10/16 00:54:26;;;;;;;8.88;3.28;;;3.60;99.90;;;;;;5009038;28;20140;-62
2023/10/16 00:56:54;;;;;;;10.82;3.85;;;3.60;99.90;;;;;;4660428;28;9999901;-62
2023/10/16 00:59:23;;;;;;;9.52;3.13;;;3.60;99.90;;;;;;5005862;28;20038;-63
2023/10/16 01:04:36;;;;;;;7.30;2.97;;;3.60;99.90;;;;;;5005406;28;20069;-61
2023/10/16 01:07:05;;;;;;;5.30;2.55;;;3.60;99.90;;;;;;5008934;28;20050;-62
2023/10/16 01:09:35;;;;;;;8.55;3.40;;;3.60;99.90;;;;;;5007888;28;20085;-62
2023/10/16 01:12:06;;;;;;;3.58;1.83;;;3.60;99.90;;;;;;5009326;28;20417;-61
2023/10/16 01:14:35;;;;;;;5.47;2.55;;;3.60;99.90;;;;;;5007887;28;20045;-62
2023/10/16 01:17:03;;;;;;;5.53;2.05;;;3.60;99.90;;;;;;5009174;28;20145;-62
2023/10/16 01:19:30;;;;;;;4.80;2.00;;;3.60;99.90;;;;;;5008644;28;20092;-61
2023/10/16 01:21:58;;;;;;;4.15;2.47;;;3.60;99.90;;;;;;4991324;28;20046;-61
2023/10/16 01:24:27;;;;;;;3.67;1.95;;;3.50;99.90;;;;;;5008789;28;20723;-62
2023/10/16 01:27:01;;;;;;;5.32;2.83;;;3.50;99.90;;;;;;5008936;28;20129;-61
2023/10/16 01:29:28;;;;;;;8.63;2.35;;;3.50;99.90;;;;;;5008917;28;20050;-61
2023/10/16 01:31:55;;;;;;;5.95;2.30;;;3.50;99.90;;;;;;4991662;28;20123;-62
2023/10/16 01:34:22;;;;;;;8.65;2.80;;;3.50;99.90;;;;;;5004814;28;20099;-61
2023/10/16 01:36:51;;;;;;;6.45;2.22;;;3.50;99.90;;;;;;5008099;28;20145;-61
2023/10/16 01:42:12;;;;;;;5.13;2.22;;;3.50;99.90;;;;;;4992757;28;20493;-61
2023/10/16 01:44:43;;;;;;;5.72;2.65;;;3.50;99.90;;;;;;5008657;28;20053;-61
2023/10/16 01:47:15;;;;;;;4.78;1.95;;;3.50;99.90;;;;;;5008431;28;20045;-61
2023/10/16 01:49:43;;;;;;;5.90;2.58;;;3.50;99.90;;;;;;4998762;28;20050;-62
2023/10/16 01:52:13;;;;;;;5.60;2.45;;;3.50;99.90;;;;;;5008158;28;20095;-61
2023/10/16 01:54:42;;;;;;;7.50;3.40;;;3.50;99.90;;;;;;5008022;28;20049;-62
2023/10/16 01:57:12;;;;;;;6.03;2.67;;;3.50;99.90;;;;;;5008610;28;20064;-62
2023/10/16 01:59:47;;;;;;;5.82;2.10;;;3.40;99.90;;;;;;5008308;28;20045;-62
2023/10/16 02:02:16;;;;;;;7.43;2.58;;;3.40;99.90;;;;;;5008478;28;20092;-63
2023/10/16 02:04:43;;;;;;;6.38;2.15;;;3.40;99.90;;;;;;5007097;28;20501;-62
2023/10/16 02:07:11;;;;;;;4.43;2.00;;;3.30;99.90;;;;;;5011440;28;20480;-62
2023/10/16 02:09:38;;;;;;;6.15;1.77;;;3.30;99.90;;;;;;5012419;28;20053;-62
2023/10/16 02:12:10;;;;;;;3.70;1.80;;;3.30;99.90;;;;;;5009760;28;20193;-62
2023/10/16 02:14:40;;;;;;;6.72;1.77;;;3.30;99.90;;;;;;5007994;28;20129;-62
2023/10/16 02:17:14;;;;;;;6.95;1.95;;;3.20;99.90;;;;;;5008463;28;20082;-63
2023/10/16 02:19:43;;;;;;;2.88;1.30;;;3.30;99.90;;;;;;5007794;28;20125;-62
2023/10/16 02:22:16;;;;;;;8.00;2.20;;;3.20;99.90;;;;;;5007696;28;20050;-61
2023/10/16 02:24:44;;;;;;;4.33;1.77;;;3.20;99.90;;;;;;5006320;28;20516;-61
2023/10/16 02:27:14;;;;;;;6.55;2.08;;;3.20;99.90;;;;;;5007861;28;20049;-61
2023/10/16 02:29:49;;;;;;;4.07;1.80;;;3.20;99.90;;;;;;5008088;28;20042;-61
2023/10/16 02:32:16;;;;;;;3.53;1.73;;;3.20;99.90;;;;;;5007930;28;20528;-63
2023/10/16 02:34:43;;;;;;;5.35;1.95;;;3.20;99.90;;;;;;5007813;28;20042;-63
2023/10/16 02:37:11;;;;;;;6.50;2.00;;;3.20;99.90;;;;;;5007301;28;20112;-62
2023/10/16 02:39:38;;;;;;;4.00;2.15;;;3.20;99.90;;;;;;5008023;28;20041;-63
2023/10/16 02:42:14;;;;;;;3.53;1.92;;;3.20;99.90;;;;;;5004934;28;20038;-63
2023/10/16 02:44:49;;;;;;;9.82;2.75;;;3.20;99.90;;;;;;5004609;28;20046;-63
2023/10/16 02:47:25;;;;;;;5.65;1.85;;;3.20;99.90;;;;;;5007549;28;20049;-63
2023/10/16 02:49:53;;;;;;;7.43;2.35;;;3.20;99.90;;;;;;5004361;28;20061;-63
2023/10/16 02:52:20;;;;;;;6.70;2.53;;;3.10;99.90;;;;;;5007382;28;20133;-62
2023/10/16 02:54:47;;;;;;;4.15;1.98;;;3.20;99.90;;;;;;5004742;28;20428;-62
2023/10/16 02:57:14;;;;;;;6.72;2.38;;;3.10;99.90;;;;;;5007588;28;20484;-63
2023/10/16 02:59:43;;;;;;;5.15;2.67;;;3.10;99.90;;;;;;5007187;28;20046;-63
2023/10/16 03:02:17;;;;;;;5.47;2.70;;;3.10;99.90;;;;;;5007735;28;20420;-63
2023/10/16 03:04:51;;;;;;;5.28;2.03;;;3.10;99.90;;;;;;5004623;28;20038;-61
2023/10/16 03:07:21;;;;;;;9.00;2.70;;;3.10;99.90;;;;;;5006981;28;20527;-62
2023/10/16 03:09:52;;;;;;;5.47;2.28;;;3.10;99.90;;;;;;5007049;28;20068;-62
2023/10/16 03:12:21;;;;;;;6.32;2.50;;;3.10;99.90;;;;;;5007363;28;20049;-62
2023/10/16 03:14:56;;;;;;;5.32;2.10;;;3.00;99.90;;;;;;5007354;28;20053;-63
2023/10/16 03:17:26;;;;;;;5.40;1.92;;;3.00;99.90;;;;;;5007150;28;20054;-62
2023/10/16 03:19:55;;;;;;;5.45;2.83;;;2.90;99.90;;;;;;5010357;28;20054;-62
2023/10/16 03:22:22;;;;;;;7.68;2.55;;;2.90;99.90;;;;;;5010417;28;20145;-62
2023/10/16 03:24:49;;;;;;;4.38;1.63;;;3.00;99.90;;;;;;5009080;28;20046;-62
2023/10/16 03:27:28;;;;;;;5.38;1.98;;;2.90;99.90;;;;;;5010992;28;20484;-62
2023/10/16 03:29:56;;;;;;;4.20;1.88;;;3.00;99.90;;;;;;5010736;28;20049;-62
2023/10/16 03:32:23;;;;;;;5.90;2.03;;;2.90;99.90;;;;;;5010643;28;20081;-62
2023/10/16 03:34:51;;;;;;;3.88;1.58;;;2.90;99.90;;;;;;5011035;28;21197;-62
2023/10/16 03:37:18;;;;;;;7.10;2.00;;;2.90;99.90;;;;;;5011251;28;20100;-62
2023/10/16 03:39:46;;;;;;;5.30;1.85;;;3.00;99.90;;;;;;5007043;28;20037;-62
2023/10/16 03:42:17;;;;;;;17.00;2.55;;;2.90;99.90;;;;;;5011590;28;20046;-62
2023/10/16 03:44:45;;;;;;;4.13;2.13;;;2.90;99.90;;;;;;5010382;28;20096;-62
2023/10/16 03:47:14;;;;;;;3.42;1.73;;;3.00;99.90;;;;;;5020605;28;20123;-62
2023/10/16 03:49:41;;;;;;;6.45;2.22;;;2.90;99.90;;;;;;5008918;28;20057;-61
2023/10/16 03:52:08;;;;;;;3.55;1.95;;;2.90;99.90;;;;;;5010677;28;20046;-62
2023/10/16 03:54:35;;;;;;;5.18;2.20;;;3.00;99.90;;;;;;5010252;28;20116;-62
2023/10/16 03:57:09;;;;;;;2.22;1.55;;;2.90;99.90;;;;;;5011316;28;20064;-62
2023/10/16 03:59:38;;;;;;;4.38;1.83;;;2.90;99.90;;;;;;5010983;28;20330;-61
2023/10/16 04:02:07;;;;;;;5.50;2.17;;;2.90;99.90;;;;;;5011752;28;20054;-62
2023/10/16 04:04:34;;;;;;;6.40;2.15;;;2.90;99.90;;;;;;5009348;28;20045;-62
2023/10/16 04:07:03;;;;;;;8.55;2.20;;;2.90;99.90;;;;;;5011061;28;20128;-62
2023/10/16 04:09:33;;;;;;;5.20;2.67;;;2.80;99.90;;;;;;5010289;28;20057;-62
2023/10/16 04:12:04;;;;;;;4.57;1.67;;;2.80;99.90;;;;;;4993426;28;20458;-62
2023/10/16 04:17:17;;;;;;;4.55;2.15;;;2.90;99.90;;;;;;5010129;28;20420;-63
2023/10/16 04:19:53;;;;;;;4.70;1.80;;;2.80;99.90;;;;;;5009699;28;20046;-63
2023/10/16 04:22:23;;;;;;;8.02;2.25;;;2.90;99.90;;;;;;5009538;28;20461;-62
2023/10/16 04:24:54;;;;;;;3.58;1.50;;;2.80;99.90;;;;;;5010008;28;20053;-63
2023/10/16 04:27:32;;;;;;;3.45;1.60;;;2.80;99.90;;;;;;5010737;28;20058;-63
2023/10/16 04:34:53;;;;;;;7.38;1.98;;;2.90;99.90;;;;;;5012631;28;20042;-63
2023/10/16 04:37:29;;;;;;;4.18;2.00;;;2.80;99.90;;;;;;5009704;28;20053;-62
2023/10/16 04:53:22;;;;;;;4.53;1.77;;;2.90;99.90;;;;;;5009431;28;20147;-63
2023/10/16 05:14:22;;;;;;;26.80;5.03;;;2.80;99.90;;;;;;4992087;28;20116;-62
2023/10/16 05:22:09;;;;;;;7.30;2.63;;;2.80;99.90;;;;;;5008538;28;20054;-62
2023/10/16 06:14:20;;;;;;;3.50;1.88;;;2.70;99.90;;;;;;5007866;28;20042;-60
2023/10/16 06:16:53;;;;;;;6.50;1.83;;;2.80;99.90;;;;;;5004419;28;20042;-63
2023/10/16 06:19:22;;;;;;;6.67;2.73;;;2.80;99.90;;;;;;5007057;28;20580;-61
2023/10/16 06:22:06;;;;;;;8.43;2.28;;;2.80;99.90;;;;;;4988373;28;20353;-62
2023/10/16 06:24:33;;;;;;;4.07;2.20;;;2.80;99.90;;;;;;5004216;28;20123;-61
2023/10/16 06:27:11;;;;;;;8.25;3.85;;;2.80;99.90;;;;;;5004592;28;20049;-62
2023/10/16 06:29:41;;;;;;;3.22;1.88;;;2.80;99.90;;;;;;5007447;28;20056;-60
2023/10/16 06:32:18;;;;;;;5.43;2.30;;;2.80;99.90;;;;;;5007580;28;20069;-61
2023/10/16 06:34:45;;;;;;;5.55;2.63;;;2.90;99.90;;;;;;5006328;28;20045;-62
2023/10/16 06:37:16;;;;;;;6.03;3.00;;;2.90;99.90;;;;;;5006992;28;20057;-62
2023/10/16 06:39:47;;;;;;;6.75;2.28;;;3.00;99.90;;;;;;5007017;28;20053;-61
2023/10/16 06:42:20;;;;;;;8.40;3.25;;;3.00;99.90;;;;;;5006320;28;20057;-62
2023/10/16 06:44:53;;;;;;;3.58;2.28;;;3.00;99.90;;;;;;4988673;28;20413;-61
2023/10/16 06:47:34;;;;;;;9.70;2.35;;;3.20;99.90;;;;;;5006043;28;20065;-61
2023/10/16 06:50:32;;;;;;;3.95;2.13;;;3.00;99.90;;;;;;5006393;28;20169;-67
2023/10/16 06:52:53;;;;;;;4.60;2.28;;;3.10;99.90;;;;;;5005975;28;20038;-63
2023/10/16 06:55:23;;;;;;;8.50;2.58;;;3.10;99.90;;;;;;5012326;28;20046;-63
2023/10/16 06:57:50;;;;;;;5.03;2.40;;;3.10;99.90;;;;;;5014929;28;20062;-63
2023/10/16 07:00:25;;;;;;;4.38;2.65;;;3.20;99.90;;;;;;5011514;28;20053;-63
2023/10/16 07:02:56;;;;;;;8.88;2.40;;;3.20;99.90;;;;;;5004850;28;20053;-63
2023/10/16 07:05:25;;;;;;;8.88;2.55;;;3.30;99.90;;;;;;5007928;28;20141;-63
2023/10/16 07:07:53;;;;;;;7.38;2.42;;;3.40;99.90;;;;;;5011527;28;20088;-63
2023/10/16 07:10:20;;;;;;;16.70;3.75;;;3.40;99.90;;;;;;5011271;28;20145;-62
2023/10/16 07:12:59;;;;;;;9.52;2.70;;;3.40;99.90;;;;;;5007512;28;20076;-62
2023/10/16 07:15:29;;;;;;;5.32;2.45;;;3.50;99.90;;;;;;5010653;28;20060;-62
2023/10/16 07:17:56;;;;;;;6.82;2.70;;;3.50;99.90;;;;;;4988646;28;20406;-65
2023/10/16 07:20:29;;;;;;;5.10;3.42;;;3.60;99.90;;;;;;4993864;28;20088;-63
2023/10/16 07:22:59;;;;;;;6.32;2.70;;;3.60;99.90;;;;;;5008075;28;20054;-62
2023/10/16 07:25:37;;;;;;;5.60;2.65;;;3.60;99.90;;;;;;4997315;28;20042;-63
2023/10/16 07:28:09;;;;;;;6.10;2.50;;;3.60;99.90;;;;;;5011139;28;20046;-63
2023/10/16 07:30:36;;;;;;;6.88;2.75;;;3.60;99.90;;;;;;5010913;28;20058;-64
2023/10/16 07:33:04;;;;;;;6.88;2.75;;;3.70;99.90;;;;;;5009027;28;20046;-63
2023/10/16 07:35:34;;;;;;;5.32;2.47;;;3.70;99.90;;;;;;5011033;28;20077;-64
2023/10/16 07:38:05;;;;;;;12.07;2.63;;;3.70;99.90;;;;;;5007893;28;20052;-62
2023/10/16 07:40:33;;;;;;;9.68;2.65;;;3.70;99.90;;;;;;5010181;28;20050;-62
2023/10/16 07:43:00;;;;;;;8.73;3.17;;;3.80;99.90;;;;;;4992799;28;20042;-64
2023/10/16 07:45:30;;;;;;;12.43;3.80;;;3.80;99.90;;;;;;5010567;28;20140;-64
2023/10/16 07:48:27;;;;;;;7.45;3.17;;;3.90;99.90;;;;;;5007130;28;20042;-62
2023/10/16 07:50:50;;;;;;;11.52;3.58;;;3.90;99.90;;;;;;5010446;28;20089;-66
2023/10/16 07:53:17;;;;;;;7.20;3.00;;;4.10;99.90;;;;;;4992419;28;20132;-65
2023/10/16 07:55:50;;;;;;;10.93;3.88;;;4.20;99.90;;;;;;5010276;28;20133;-65
2023/10/16 07:58:33;;;;;;;5.85;3.03;;;4.30;99.90;;;;;;5009825;28;20081;-65
2023/10/16 08:03:36;;;;;;;10.68;3.35;;;4.40;99.90;;;;;;5009035;28;20064;-65
2023/10/16 08:06:11;;;;;;;5.53;2.90;;;4.50;99.90;;;;;;5010043;28;20049;-64
2023/10/16 08:08:39;;;;;;;8.15;3.47;;;4.60;99.90;;;;;;5009288;28;20038;-65
2023/10/16 08:11:18;;;;;;;8.48;3.58;;;4.60;99.90;;;;;;5010721;28;20119;-64
2023/10/16 08:13:51;;;;;;;5.82;3.22;;;4.60;99.90;;;;;;5009550;28;20046;-62
2023/10/16 08:16:19;;;;;;;12.73;4.68;;;4.80;99.90;;;;;;5003500;28;20049;-67
2023/10/16 08:18:49;;;;;;;7.82;4.25;;;4.80;99.90;;;;;;5009624;28;20046;-63
2023/10/16 08:21:25;;;;;;;9.27;4.05;;;4.90;99.90;;;;;;5010294;28;20046;-64
2023/10/16 08:23:53;;;;;;;10.10;3.88;;;5.00;99.90;;;;;;5009557;28;20061;-64
2023/10/16 08:26:29;;;;;;;8.00;3.97;;;5.10;99.90;;;;;;5006039;28;20103;-64
2023/10/16 08:29:11;;;;;;;9.60;3.85;;;5.10;99.90;;;;;;5009540;28;20053;-64
2023/10/16 08:31:42;;;;;;;11.10;4.55;;;5.20;99.90;;;;;;5010080;28;20084;-64
2023/10/16 08:34:10;;;;;;;11.23;4.75;;;5.20;99.90;;;;;;5009567;28;20537;-66
2023/10/16 08:36:37;;;;;;;12.20;4.70;;;5.30;99.90;;;;;;5009796;28;20045;-65
2023/10/16 08:39:08;;;;;;;12.88;5.03;;;5.40;99.90;;;;;;5006901;28;20050;-64
2023/10/16 08:44:18;;;;;;;10.35;3.90;;;5.50;99.90;;;;;;5009600;28;20606;-63
2023/10/16 08:46:52;;;;;;;10.88;4.45;;;5.50;99.90;;;;;;5010013;28;20512;-62
2023/10/16 08:49:23;;;;;;;;;;;5.70;99.90;;;;;;5009851;28;20079;-64
2023/10/16 08:51:53;;;;;;;6.68;4.57;;;5.70;99.90;;;;;;5008980;28;19928;-63
2023/10/16 08:55:14;;;;;;;8.30;3.78;;;5.70;99.90;;;;;;5009059;28;20073;-65
2023/10/16 08:57:16;;;;;;;9.25;4.68;;;5.80;99.90;;;;;;4998769;28;20046;-63
2023/10/16 08:59:43;;;;;;;8.95;3.95;;;5.90;99.90;;;;;;5008818;28;20107;-63
2023/10/16 09:02:13;;;;;;;7.97;3.53;;;6.00;99.90;;;;;;5009221;28;20045;-65
2023/10/16 09:04:43;;;;;;;12.05;4.40;;;6.10;99.90;;;;;;5008727;28;20476;-64
2023/10/16 09:07:16;;;;;;;8.18;4.50;;;6.20;99.90;;;;;;5009204;28;20525;-64
2023/10/16 09:09:48;;;;;;;9.10;5.32;;;6.40;99.90;;;;;;5009406;28;20053;-64
2023/10/16 09:12:24;;;;;;;14.63;3.58;;;6.40;99.90;;;;;;5008512;28;20278;-65
2023/10/16 09:14:52;;;;;;;10.77;3.47;;;6.50;99.90;;;;;;5012873;28;20041;-65
2023/10/16 09:17:25;;;;;;;7.63;3.42;;;6.60;99.90;;;;;;5009744;28;20061;-64
2023/10/16 09:19:53;;;;;;;13.20;5.03;;;6.70;99.90;;;;;;5006489;28;20053;-66
2023/10/16 09:22:31;;;;;;;9.98;3.50;;;6.90;99.90;;;;;;5004848;28;20054;-65
2023/10/16 09:24:59;;;;;;;14.00;3.45;;;7.00;99.90;;;;;;5004859;28;20064;-65
2023/10/16 09:27:31;;;;;;;6.72;3.30;;;7.20;99.90;;;;;;4986998;28;20064;-65
2023/10/16 09:30:00;;;;;;;7.45;2.88;;;7.30;99.90;;;;;;5002802;28;20053;-65
2023/10/16 09:32:36;;;;;;;10.45;4.15;;;7.40;99.90;;;;;;4971738;28;20050;-65
2023/10/16 09:35:12;;;;;;;8.40;3.13;;;7.50;99.90;;;;;;4986710;28;20053;-64
2023/10/16 09:37:39;;;;;;;11.35;4.00;;;7.60;99.90;;;;;;5003767;28;20050;-66
2023/10/16 09:48:47;;;;;;;4.60;2.55;;;8.10;99.90;;;;;;4988163;28;20050;-63
2023/10/16 09:51:14;;;;;;;13.35;2.78;;;8.20;99.90;;;;;;4986514;28;20049;-65
2023/10/16 09:53:41;;;;;;;10.85;2.80;;;8.30;99.90;;;;;;4988857;28;20053;-66
2023/10/16 09:56:09;;;;;;;13.57;2.88;;;8.40;99.90;;;;;;4986149;28;20508;-66
2023/10/16 09:58:36;;;;;;;8.23;2.97;;;8.40;99.90;;;;;;4967591;28;20057;-66
2023/10/16 10:01:16;;;;;;;5.25;2.75;;;8.50;99.90;;;;;;4986958;28;20042;-64
2023/10/16 10:03:44;;;;;;;9.40;3.47;;;8.50;99.90;;;;;;4987618;28;20100;-64
2023/10/16 10:06:20;;;;;;;7.28;2.80;;;8.60;99.90;;;;;;4978052;28;20054;-64
2023/10/16 10:11:38;;;;;;;8.18;3.80;;;8.70;99.90;;;;;;4965666;28;20061;-65
2023/10/16 10:16:58;;;;;;;12.65;3.70;;;8.80;99.90;;;;;;4983115;28;20584;-63
2023/10/16 10:19:31;;;;;;;7.45;3.15;;;8.90;99.90;;;;;;5003589;28;20055;-65
2023/10/16 10:22:12;;;;;;;5.50;2.55;;;9.00;99.90;;;;;;5004132;28;20070;-66
2023/10/16 10:24:45;;;;;;;8.43;3.25;;;9.10;99.90;;;;;;4657933;28;10000556;-66
2023/10/16 10:27:12;;;;;;;5.57;2.65;;;9.20;99.90;;;;;;4981964;28;20493;-66
2023/10/16 10:29:43;;;;;;;8.15;3.05;;;9.30;99.90;;;;;;5003747;28;20119;-64
2023/10/16 10:32:13;;;;;;;9.70;2.80;;;9.50;99.90;;;;;;5000834;28;20540;-64
2023/10/16 10:34:42;;;;;;;4.40;2.63;;;9.50;99.90;;;;;;5002749;28;20119;-65
2023/10/16 10:37:41;;;;;;;5.53;2.30;;;9.60;99.90;;;;;;5002934;28;20042;-66
2023/10/16 10:40:15;;;;;;;4.95;2.25;;;9.60;99.90;;;;;;5002809;28;20046;-66
2023/10/16 10:42:41;;;;;;;5.65;2.65;;;9.70;99.90;;;;;;5002301;28;20053;-67
2023/10/16 10:45:17;;;;;;;7.32;2.45;;;9.90;99.90;;;;;;4971106;28;20053;-68
2023/10/16 10:47:45;;;;;;;16.02;2.40;;;10.00;99.90;;;;;;5004580;28;20045;-66
2023/10/16 10:50:15;;;;;;;3.97;1.80;;;10.20;99.90;;;;;;5005348;28;20041;-66
2023/10/16 10:52:43;;;;;;;4.05;1.80;;;10.30;99.90;;;;;;5003851;28;20042;-66
2023/10/16 10:55:21;;;;;;;7.22;1.88;;;10.50;99.90;;;;;;4986755;28;20096;-66
2023/10/16 10:57:57;;;;;;;6.55;1.77;;;10.60;99.90;;;;;;5003144;28;20046;-66
2023/10/16 11:05:34;;;;;;;4.55;2.22;;;10.70;99.90;;;;;;5001296;28;20080;-66
2023/10/16 11:10:44;;;;;;;15.50;1.88;;;10.80;99.90;;;;;;5003221;28;20054;-66
2023/10/16 11:13:12;;;;;;;5.90;1.50;;;10.80;99.90;;;;;;5003794;28;20089;-66
2023/10/16 11:15:47;;;;;;;3.75;2.15;;;10.90;99.90;;;;;;5003740;28;20330;-66
2023/10/16 11:18:18;;;;;;;5.60;2.10;;;10.90;99.90;;;;;;5002460;28;20050;-65
2023/10/16 11:20:47;;;;;;;6.70;1.23;;;10.90;99.90;;;;;;5002620;28;20233;-66
2023/10/16 11:23:14;;;;;;;8.73;2.15;;;10.90;99.90;;;;;;4997393;28;20525;-66
2023/10/16 11:25:44;;;;;;;3.92;1.27;;;11.00;99.90;;;;;;4983683;28;20046;-65
2023/10/16 11:28:20;;;;;;;5.32;1.95;;;11.00;99.90;;;;;;4983771;28;20046;-65
2023/10/16 11:30:49;;;;;;;3.33;1.52;;;11.10;99.90;;;;;;4977278;28;20077;-65
2023/10/16 11:33:26;;;;;;;10.57;2.42;;;11.10;99.90;;;;;;4982884;28;20086;-66
2023/10/16 11:35:58;;;;;;;11.45;1.27;;;11.30;99.90;;;;;;4981806;28;20043;-62
2023/10/16 11:38:28;;;;;;;6.93;2.35;;;11.30;99.90;;;;;;4983882;28;20050;-65
2023/10/16 11:40:57;;;;;;;9.93;1.30;;;11.40;99.90;;;;;;4990898;28;20046;-65
2023/10/16 11:43:24;;;;;;;4.47;1.90;;;11.40;99.90;;;;;;4983527;28;20071;-67
2023/10/16 11:45:53;;;;;;;9.15;1.80;;;11.40;99.90;;;;;;4988441;28;20053;-64
2023/10/16 11:50:51;;;;;;;4.00;1.45;;;11.60;99.90;;;;;;4988241;28;20480;-62
2023/10/16 11:53:23;;;;;;;7.65;1.52;;;11.70;99.90;;;;;;4987587;28;20061;-63
2023/10/16 11:55:50;;;;;;;16.90;1.85;;;11.80;99.90;;;;;;4987705;28;20054;-64
2023/10/16 11:58:17;;;;;;;52.65;6.45;;;11.80;99.90;;;;;;4987280;28;20436;-64
2023/10/16 12:00:54;;;;;;;9.93;2.30;;;11.90;99.90;;;;;;4986168;28;20058;-63
2023/10/16 12:03:23;;;;;;;7.05;1.30;;;11.90;99.90;;;;;;4987573;28;20169;-63
2023/10/16 12:05:51;;;;;;;7.03;1.83;;;12.00;99.90;;;;;;4987395;28;20043;-63
2023/10/16 12:08:18;;;;;;;15.25;5.03;;;12.00;99.90;;;;;;4969688;28;20046;-63
2023/10/16 12:10:48;;;;;;;3.90;1.15;;;12.10;99.90;;;;;;4987564;28;20050;-62
2023/10/16 12:13:15;;;;;;;3.30;1.40;;;12.00;99.90;;;;;;4987792;28;20135;-63
2023/10/16 12:15:46;;;;;;;9.55;2.88;;;12.10;99.90;;;;;;4989018;28;20050;-63
2023/10/16 12:18:14;;;;;;;9.02;1.92;;;12.10;99.90;;;;;;4989500;28;20073;-64
2023/10/16 12:20:41;;;;;;;5.90;1.42;;;12.00;99.90;;;;;;4987585;28;20316;-63
2023/10/16 12:23:08;;;;;;;5.65;1.20;;;12.00;99.90;;;;;;4987992;28;20352;-64
2023/10/16 12:25:35;;;;;;;4.65;1.70;;;12.00;99.90;;;;;;4988704;28;20517;-63
2023/10/16 12:28:02;;;;;;;3.45;1.42;;;11.90;99.90;;;;;;4988025;28;20051;-63
2023/10/16 12:30:30;;;;;;;6.63;1.88;;;11.90;99.90;;;;;;4989420;28;20046;-64
2023/10/16 12:32:59;;;;;;;7.82;1.30;;;11.90;99.90;;;;;;4980650;28;20440;-64
2023/10/16 12:35:28;;;;;;;5.30;1.35;;;11.80;99.90;;;;;;4989621;28;20050;-63
2023/10/16 12:37:59;;;;;;;3.58;1.17;;;11.80;99.90;;;;;;4989373;28;20069;-63
2023/10/16 12:40:37;;;;;;;5.28;1.42;;;11.80;99.90;;;;;;4989373;28;20439;-63
2023/10/16 12:43:06;;;;;;;6.15;1.58;;;11.90;99.90;;;;;;4989498;28;20073;-62
2023/10/16 12:45:33;;;;;;;8.85;1.48;;;11.90;99.90;;;;;;4989202;28;20081;-63
2023/10/16 12:48:00;;;;;;;7.80;1.73;;;12.00;99.90;;;;;;4989300;28;20474;-61
2023/10/16 12:50:27;;;;;;;3.97;1.33;;;12.00;99.90;;;;;;4988300;28;20122;-63
2023/10/16 12:52:55;;;;;;;10.90;3.03;;;12.10;99.90;;;;;;4980212;28;20047;-62
2023/10/16 12:55:23;;;;;;;4.47;1.40;;;12.10;99.90;;;;;;4986926;28;20054;-63
2023/10/16 12:57:51;;;;;;;6.20;1.55;;;12.10;99.90;;;;;;4989282;28;20050;-65
2023/10/16 13:00:19;;;;;;;2.60;1.08;;;12.20;99.90;;;;;;4990178;28;20050;-64
2023/10/16 13:02:48;;;;;;;7.38;1.50;;;12.20;99.90;;;;;;4990265;28;20042;-64
2023/10/16 13:05:16;;;;;;;4.60;1.30;;;12.20;99.90;;;;;;4988283;28;20058;-63
2023/10/16 13:07:43;;;;;;;6.30;1.25;;;12.20;99.90;;;;;;4989662;28;20710;-63
2023/10/16 13:10:20;;;;;;;5.18;1.55;;;12.20;99.90;;;;;;4990246;28;20046;-64
2023/10/16 13:12:47;;;;;;;5.03;1.58;;;12.20;99.90;;;;;;4989649;28;20057;-64
2023/10/16 13:15:16;;;;;;;3.42;1.15;;;12.20;99.90;;;;;;4989821;28;20511;-64
2023/10/16 13:17:48;;;;;;;4.70;1.95;;;12.20;99.90;;;;;;4989048;28;20038;-65
2023/10/16 13:20:18;;;;;;;2.53;0.95;;;12.20;99.90;;;;;;4989614;28;20518;-63
2023/10/16 13:22:52;;;;;;;4.55;1.60;;;12.20;99.90;;;;;;4989281;28;20053;-64
2023/10/16 13:25:22;;;;;;;8.73;1.65;;;12.10;99.90;;;;;;5009475;28;20489;-63
2023/10/16 13:27:49;;;;;;;8.20;1.60;;;12.10;99.90;;;;;;5008941;28;20133;-65
2023/10/16 13:30:22;;;;;;;11.50;2.38;;;12.20;99.90;;;;;;5009528;28;20056;-62
2023/10/16 13:32:49;;;;;;;18.05;2.05;;;12.10;99.90;;;;;;4990752;28;20497;-64
2023/10/16 13:35:18;;;;;;;3.90;1.35;;;12.20;99.90;;;;;;5009014;28;20560;-64
2023/10/16 13:37:45;;;;;;;3.47;1.20;;;12.20;99.90;;;;;;5001229;28;20041;-63
2023/10/16 13:40:22;;;;;;;7.85;1.52;;;12.20;99.90;;;;;;5002302;28;20130;-62
2023/10/16 13:42:51;;;;;;;2.75;1.30;;;12.30;99.90;;;;;;5008748;28;20045;-64
2023/10/16 13:45:19;;;;;;;7.07;1.67;;;12.30;99.90;;;;;;5005719;28;20448;-63
2023/10/16 13:47:46;;;;;;;2.30;1.27;;;12.30;99.90;;;;;;5007903;28;20064;-65
2023/10/16 13:50:13;;;;;;;5.63;1.73;;;12.20;99.90;;;;;;5008704;28;20045;-62
2023/10/16 13:52:43;;;;;;;2.85;1.23;;;12.20;99.90;;;;;;5008410;28;20056;-63
2023/10/16 13:55:12;;;;;;;8.55;1.92;;;12.20;99.90;;;;;;5007596;28;20057;-62
2023/10/16 13:57:42;;;;;;;7.00;1.77;;;12.20;99.90;;;;;;5000215;28;20077;-63
2023/10/16 14:00:28;;;;;;;13.57;3.05;;;12.20;99.90;;;;;;5008535;28;20054;-64
2023/10/16 14:03:04;;;;;;;5.10;1.52;;;12.10;99.90;;;;;;5002300;28;20920;-64
2023/10/16 14:05:40;;;;;;;4.70;2.17;;;12.10;99.90;;;;;;5009307;28;20046;-64
2023/10/16 14:08:14;;;;;;;7.32;1.77;;;12.10;99.90;;;;;;5010161;28;20092;-64
2023/10/16 14:10:57;;;;;;;6.40;1.27;;;12.10;99.90;;;;;;5010998;28;20045;-62
2023/10/16 14:13:28;;;;;;;8.13;1.90;;;12.10;99.90;;;;;;5007968;28;20076;-63
2023/10/16 14:16:11;;;;;;;4.63;1.50;;;12.10;99.90;;;;;;5008671;28;20539;-64
2023/10/16 14:18:42;;;;;;;7.97;1.65;;;12.10;99.90;;;;;;5000829;28;20064;-64
2023/10/16 14:21:14;;;;;;;14.95;1.75;;;12.10;99.90;;;;;;5008477;28;20409;-64
2023/10/16 14:23:43;;;;;;;10.60;2.22;;;12.10;99.90;;;;;;5008086;28;20046;-63
2023/10/16 14:26:11;;;;;;;7.90;1.92;;;12.20;99.90;;;;;;5007350;28;20104;-63
2023/10/16 14:28:44;;;;;;;9.15;1.90;;;12.20;99.90;;;;;;5001056;28;20146;-63
2023/10/16 14:31:17;;;;;;;8.43;1.83;;;12.20;99.90;;;;;;5007394;28;20132;-62
2023/10/16 14:33:44;;;;;;;5.05;2.00;;;12.20;99.90;;;;;;5008093;28;20544;-62
2023/10/16 14:36:16;;;;;;;4.03;1.65;;;12.20;99.90;;;;;;4990636;28;20053;-63
2023/10/16 14:38:43;;;;;;;9.45;1.98;;;12.20;99.90;;;;;;4991042;28;20393;-62
2023/10/16 14:41:16;;;;;;;4.45;1.95;;;12.20;99.90;;;;;;5007608;28;20085;-63
2023/10/16 14:43:47;;;;;;;5.60;2.25;;;12.30;99.90;;;;;;5002848;28;20229;-62
2023/10/16 14:46:15;;;;;;;9.98;2.42;;;12.30;99.90;;;;;;5007338;28;20046;-62
2023/10/16 14:48:45;;;;;;;8.70;2.55;;;12.30;99.90;;;;;;5006465;28;20046;-63
2023/10/16 14:51:18;;;;;;;7.10;2.20;;;12.30;99.90;;;;;;5005304;28;20484;-62
2023/10/16 14:53:47;;;;;;;3.88;1.70;;;12.30;99.90;;;;;;5007110;28;20045;-61
2023/10/16 14:56:18;;;;;;;6.43;1.73;;;12.30;99.90;;;;;;5004074;28;20483;-63
2023/10/16 14:58:49;;;;;;;5.03;1.88;;;12.40;99.90;;;;;;5005891;28;20358;-62
2023/10/16 15:01:36;;;;;;;3.95;1.35;;;12.40;99.90;;;;;;4992092;28;20054;-63
2023/10/16 15:04:04;;;;;;;6.90;1.98;;;12.30;99.90;;;;;;5008270;28;20548;-63
2023/10/16 15:06:31;;;;;;;7.35;2.03;;;12.30;99.90;;;;;;5006178;28;20054;-63
2023/10/16 15:08:58;;;;;;;12.52;1.83;;;12.30;99.90;;;;;;5007002;28;20052;-64
2023/10/16 15:11:26;;;;;;;4.65;1.80;;;12.30;99.90;;;;;;5010263;28;20108;-62
2023/10/16 15:13:54;;;;;;;7.68;2.10;;;12.30;99.90;;;;;;5010899;28;20413;-63
2023/10/16 15:16:21;;;;;;;6.82;1.73;;;12.30;99.90;;;;;;5010698;28;20077;-63
2023/10/16 15:18:48;;;;;;;9.82;1.73;;;12.30;99.90;;;;;;5009211;28;20042;-63
2023/10/16 15:21:16;;;;;;;7.88;1.67;;;12.30;99.90;;;;;;5010751;28;20064;-63